DON PEDRO RESERVOIR (DNP)

Elevation: 830' · TUOLUMNE R basin · Operator: Turlock Irrigation District


Station comments:

11/04/2014Hourly storage has resumed as of 11/4/2014. It had previously stopped at 11/25/2009.


Provisional data, subject to change.
Query executed Friday at 18:30:53   clock

Select a sensor type for a plot of data.
Note: Reservoir Flows are daily averages.

Earlier

Date RES ELE    STORAGE    RES CHG    TOC STO    ABV TOC    OUTFLOW    INFLOW    PPT INC   
 FEET   AF   AF   AF   AF   CFS   CFS   INCHES  
10/22/2014 692.80 756483 e -- 1690000 -934145 170 170 0.00
10/23/2014 692.82 756609 e -- 1690000 -- 172 172 0.00
10/24/2014 692.81 755855 -- 1690000 -- 170 170 0.00
10/25/2014 692.82 755855 -- 1690000 -- 172 172 0.00
10/26/2014 692.84 755855 -- 1690000 -934145 171 171 0.00
10/27/2014 692.88 756483 -- 1690000 -933517 171 488 0.00
10/28/2014 692.80 756483 -- 1690000 -933517 171 171 0.00
10/29/2014 692.89 756483 -- 1690000 -933517 173 173 0.00
10/30/2014 692.92 756483 -- 1690000 -933517 170 170 0.00
10/31/2014 692.95 756483 -- 1690000 -- 170 170 0.00
11/01/2014 693.08 758367 -- 1690000 -- 170 170 0.00
11/02/2014 693.11 758367 -- 1690000 -931633 172 172 0.00
11/03/2014 692.90 757111 -- 1690000 -932889 380 380 0.00
11/04/2014 693.09 758367 -- 1690000 -931633 246 246 0.00
11/05/2014 693.07 758367 -- 1690000 -- 424 424 0.00
11/06/2014 692.90 757111 -- 1690000 -932889 396 396 0.00
11/07/2014 693.06 758367 -- 1690000 -- 363 363 0.00
11/08/2014 693.11 758367 -- 1690000 -- 326 326 0.00
11/09/2014 693.17 758996 -- 1690000 -931004 414 414 0.00
11/10/2014 693.01 757739 -943 1690000 -- 504 -130 0.00
11/11/2014 693.05 757111 -942 1690000 -- 218 535 0.00
11/12/2014 692.99 757739 0 1690000 -932261 384 68 0.00
11/13/2014 693.00 757739 -628 1690000 -932261 413 413 0.00
11/14/2014 692.92 756483 -1570 1690000 -- 441 -192 0.00
11/15/2014 692.93 756483 314 1690000 -- 291 291 0.00
11/16/2014 692.91 756483 -314 1690000 -- 308 308 0.00
11/17/2014 692.85 755855 0 1690000 -934145 297 -19 0.00
11/18/2014 692.81 755855 -313 1690000 -934145 267 267 0.00
11/19/2014 692.78 755855 -313 1690000 -- 372 372 0.00
11/20/2014 692.71 755855 -313 1690000 -934145 415 415 0.00
11/21/2014 -- -- -- -- -- -- -- --

Later | Latest

Warning! This data is preliminary and subject to revision.

Show DNP Map | Plot DNP Data | 1 Month DNP Data | Real-Time DNP Data | DNP Info